Time,TemperatureF,DewpointF,PressureIn,WindDirection,WindDirectionDegrees,WindSpeedMPH,WindSpeedGustMPH,Humidity,HourlyPrecipIn,Conditions,Clouds,dailyrainin,SoftwareType,DateUTC
2013-07-29 00:01:00,60.9,55.4,29.92,WSW,245,0.9,3.0,82,0.00,RA,,0.00,WeatherDisplay:10.37,2013-07-29 04:01:00,
2013-07-29 00:02:00,60.8,55.3,29.92,WSW,246,0.3,3.5,82,0.00,RA,,0.00,WeatherDisplay:10.37,2013-07-29 04:02:00,
2013-07-29 00:07:00,60.6,54.7,29.92,WSW,246,0.3,1.2,81,0.00,-RA,,0.00,WeatherDisplay:10.37,2013-07-29 04:07:00,
2013-07-29 00:12:00,60.4,54.5,29.92,WSW,254,3.4,5.8,81,0.00,-RA,,0.00,WeatherDisplay:10.37,2013-07-29 04:12:00,
2013-07-29 00:17:00,60.3,54.4,29.92,WSW,255,1.4,3.5,81,0.00,-RA,,0.00,WeatherDisplay:10.37,2013-07-29 04:17:00,
2013-07-29 00:22:00,60.2,54.3,29.92,WSW,255,0.8,0.0,81,0.00,-RA,,0.00,WeatherDisplay:10.37,2013-07-29 04:22:00,
2013-07-29 00:27:00,60.0,54.2,29.92,WSW,250,1.2,3.5,81,0.00,-RA,,0.00,WeatherDisplay:10.37,2013-07-29 04:27:00,
2013-07-29 00:32:00,59.8,54.0,29.92,SW,231,0.2,0.0,81,0.00,-RA,,0.00,WeatherDisplay:10.37,2013-07-29 04:32:00,
2013-07-29 00:37:00,59.7,53.9,29.92,SW,223,0.0,1.2,81,0.00,-RA,,0.00,WeatherDisplay:10.37,2013-07-29 04:37:00,
2013-07-29 00:42:00,59.5,53.7,29.93,SW,221,0.0,0.0,81,0.00,-RA,,0.00,WeatherDisplay:10.37,2013-07-29 04:42:00,
2013-07-29 00:47:00,59.3,53.8,29.93,SSW,209,0.9,3.5,82,0.00,-RA,,0.00,WeatherDisplay:10.37,2013-07-29 04:47:00,
2013-07-29 00:52:00,59.3,53.8,29.93,SSW,209,0.7,2.3,82,0.00,-RA,,0.00,WeatherDisplay:10.37,2013-07-29 04:52:00,
2013-07-29 00:57:00,59.4,54.2,29.93,SSW,209,0.0,0.0,83,0.00,-RA,,0.00,WeatherDisplay:10.37,2013-07-29 04:57:00,
2013-07-29 01:02:00,59.5,54.7,29.93,SSW,209,0.0,0.0,84,0.00,BKN,,0.00,WeatherDisplay:10.37,2013-07-29 05:02:00,
2013-07-29 01:07:00,59.3,54.8,29.93,SSW,209,0.0,0.0,85,0.00,BKN,,0.00,WeatherDisplay:10.37,2013-07-29 05:07:00,
2013-07-29 01:12:00,59.0,54.8,29.93,SSW,210,0.2,0.0,86,0.00,BKN,,0.00,WeatherDisplay:10.37,2013-07-29 05:12:00,
2013-07-29 01:17:00,58.9,55.0,29.93,SSW,210,0.0,0.0,87,0.00,BKN,,0.00,WeatherDisplay:10.37,2013-07-29 05:17:00,
2013-07-29 01:22:00,58.5,55.0,29.93,SSW,211,0.0,0.0,88,0.00,BKN,,0.00,WeatherDisplay:10.37,2013-07-29 05:22:00,
2013-07-29 01:27:00,58.3,55.1,29.93,SSW,211,0.0,0.0,89,0.00,BKN,,0.00,WeatherDisplay:10.37,2013-07-29 05:27:00,
2013-07-29 01:32:00,58.2,55.3,29.93,SSW,211,0.0,0.0,90,0.00,OVC,,0.00,WeatherDisplay:10.37,2013-07-29 05:32:00,
2013-07-29 01:38:00,58.2,55.3,29.93,SSW,211,0.0,0.0,90,0.00,OVC,,0.00,WeatherDisplay:10.37,2013-07-29 05:38:00,
2013-07-29 01:43:00,58.3,55.4,29.93,SSW,209,0.0,0.0,90,0.00,OVC,,0.00,WeatherDisplay:10.37,2013-07-29 05:43:00,
2013-07-29 01:48:00,58.5,55.9,29.94,SSW,208,0.6,3.5,91,0.00,OVC,,0.00,WeatherDisplay:10.37,2013-07-29 05:48:00,
2013-07-29 01:53:00,58.8,56.2,29.93,SSW,207,1.7,3.5,91,0.01,-RA,,0.01,WeatherDisplay:10.37,2013-07-29 05:53:00,
2013-07-29 01:58:00,59.0,56.4,29.93,SSW,210,0.3,3.0,91,0.01,-RA,,0.01,WeatherDisplay:10.37,2013-07-29 05:58:00,
2013-07-29 02:03:00,59.0,56.7,29.93,SW,215,0.0,0.0,92,0.01,OVC,,0.01,WeatherDisplay:10.37,2013-07-29 06:03:00,
2013-07-29 02:08:00,59.0,56.7,29.93,SW,215,0.0,0.0,92,0.01,OVC,,0.01,WeatherDisplay:10.37,2013-07-29 06:08:00,
2013-07-29 02:13:00,59.0,56.7,29.92,SW,215,0.0,0.0,92,0.01,OVC,,0.01,WeatherDisplay:10.37,2013-07-29 06:13:00,
2013-07-29 02:18:00,59.0,56.7,29.92,SW,215,0.0,0.0,92,0.02,RA,,0.02,WeatherDisplay:10.37,2013-07-29 06:18:00,
2013-07-29 02:23:00,59.0,56.7,29.92,SW,215,0.0,0.0,92,0.00,RA,,0.02,WeatherDisplay:10.37,2013-07-29 06:23:00,
2013-07-29 02:28:00,59.0,56.7,29.92,SW,215,0.0,0.0,92,0.02,OVC,,0.02,WeatherDisplay:10.37,2013-07-29 06:28:00,
2013-07-29 02:33:00,59.0,56.7,29.92,SW,215,0.0,0.0,92,0.02,OVC,,0.02,WeatherDisplay:10.37,2013-07-29 06:33:00,
2013-07-29 02:38:00,59.0,56.7,29.92,SW,215,0.0,0.0,92,0.00,OVC,,0.02,WeatherDisplay:10.37,2013-07-29 06:38:00,
2013-07-29 02:43:00,59.0,56.7,29.92,SW,215,0.0,0.0,92,0.02,OVC,,0.02,WeatherDisplay:10.37,2013-07-29 06:43:00,
2013-07-29 02:48:00,59.0,56.7,29.92,SW,215,0.0,0.0,92,0.00,OVC,,0.02,WeatherDisplay:10.37,2013-07-29 06:48:00,
2013-07-29 02:53:00,59.0,56.7,29.92,SW,215,0.0,0.0,92,0.01,OVC,,0.02,WeatherDisplay:10.37,2013-07-29 06:53:00,
2013-07-29 02:58:00,59.0,56.7,29.92,SW,214,0.3,2.3,92,0.01,OVC,,0.02,WeatherDisplay:10.37,2013-07-29 06:58:00,
2013-07-29 03:03:00,59.0,56.7,29.92,SW,215,0.0,2.0,92,0.00,BKN,,0.02,WeatherDisplay:10.37,2013-07-29 07:03:00,
2013-07-29 03:08:00,59.0,56.7,29.92,SW,215,0.0,0.0,92,0.01,BKN,,0.02,WeatherDisplay:10.37,2013-07-29 07:08:00,
2013-07-29 03:13:00,59.0,56.7,29.92,SW,215,0.0,0.0,92,0.00,BKN,,0.02,WeatherDisplay:10.37,2013-07-29 07:13:00,
2013-07-29 03:18:00,59.0,56.7,29.92,SW,215,0.0,0.0,92,0.01,BKN,,0.02,WeatherDisplay:10.37,2013-07-29 07:18:00,
2013-07-29 03:23:00,59.0,56.7,29.91,SW,215,0.0,0.0,92,0.00,BKN,,0.02,WeatherDisplay:10.37,2013-07-29 07:23:00,
2013-07-29 03:28:00,59.0,56.7,29.91,SW,215,0.0,0.0,92,0.00,BKN,,0.02,WeatherDisplay:10.37,2013-07-29 07:28:00,
2013-07-29 03:33:00,59.0,56.7,29.92,SW,215,0.0,0.0,92,0.00,BKN,,0.02,WeatherDisplay:10.37,2013-07-29 07:33:00,
2013-07-29 03:38:00,58.9,56.6,29.92,SW,214,0.0,0.0,92,0.00,BKN,,0.02,WeatherDisplay:10.37,2013-07-29 07:38:00,
2013-07-29 03:43:00,59.0,56.9,29.92,SW,215,0.0,0.0,93,0.00,BKN,,0.02,WeatherDisplay:10.37,2013-07-29 07:43:00,
2013-07-29 03:48:00,58.9,56.6,29.92,SW,215,0.0,0.0,92,0.00,BKN,,0.02,WeatherDisplay:10.37,2013-07-29 07:48:00,
2013-07-29 03:53:00,58.9,56.6,29.92,SW,215,0.0,0.0,92,0.00,BKN,,0.02,WeatherDisplay:10.37,2013-07-29 07:53:00,
2013-07-29 03:58:00,59.0,56.9,29.93,SW,215,0.0,0.0,93,0.00,BKN,,0.02,WeatherDisplay:10.37,2013-07-29 07:58:00,
2013-07-29 04:03:00,58.9,56.9,29.92,SW,215,0.0,0.0,93,0.00,OVC,,0.02,WeatherDisplay:10.37,2013-07-29 08:03:00,
2013-07-29 04:08:00,59.0,57.0,29.92,SW,215,0.0,0.0,93,0.00,OVC,,0.02,WeatherDisplay:10.37,2013-07-29 08:08:00,
2013-07-29 04:13:00,59.0,57.6,29.92,SW,215,0.0,0.0,95,0.00,OVC,,0.02,WeatherDisplay:10.37,2013-07-29 08:13:00,
2013-07-29 04:18:00,59.0,57.0,29.93,SW,215,0.0,0.0,93,0.00,OVC,,0.02,WeatherDisplay:10.37,2013-07-29 08:18:00,
2013-07-29 04:23:00,59.0,57.3,29.92,SW,215,0.0,0.0,94,0.00,OVC,,0.02,WeatherDisplay:10.37,2013-07-29 08:23:00,
2013-07-29 04:28:00,59.0,57.0,29.93,SW,215,0.0,0.0,93,0.00,OVC,,0.02,WeatherDisplay:10.37,2013-07-29 08:28:00,
2013-07-29 04:33:00,59.0,57.0,29.93,SW,215,0.0,0.0,93,0.00,OVC,,0.02,WeatherDisplay:10.37,2013-07-29 08:33:00,
2013-07-29 04:38:00,59.0,57.0,29.93,SW,215,0.0,0.0,93,0.00,OVC,,0.02,WeatherDisplay:10.37,2013-07-29 08:38:00,
2013-07-29 04:43:00,59.0,57.0,29.93,SW,215,0.0,0.0,93,0.00,OVC,,0.02,WeatherDisplay:10.37,2013-07-29 08:43:00,
2013-07-29 04:48:00,59.0,57.0,29.93,SW,215,0.0,0.0,93,0.00,OVC,,0.02,WeatherDisplay:10.37,2013-07-29 08:48:00,
2013-07-29 04:53:00,59.0,57.0,29.93,SW,215,0.0,0.0,93,0.00,OVC,,0.02,WeatherDisplay:10.37,2013-07-29 08:53:00,
2013-07-29 04:58:00,59.0,57.6,29.93,SW,215,0.0,0.0,95,0.00,OVC,,0.02,WeatherDisplay:10.37,2013-07-29 08:58:00,
2013-07-29 05:03:00,59.0,57.6,29.93,SW,215,0.0,0.0,95,0.00,OVC,,0.02,WeatherDisplay:10.37,2013-07-29 09:03:00,
2013-07-29 05:08:00,58.9,56.9,29.93,SW,215,0.0,0.0,93,0.00,OVC,,0.02,WeatherDisplay:10.37,2013-07-29 09:08:00,
2013-07-29 05:13:00,58.9,56.9,29.93,SW,215,0.0,0.0,93,0.00,OVC,,0.02,WeatherDisplay:10.37,2013-07-29 09:13:00,
2013-07-29 05:18:00,58.8,56.8,29.93,SW,214,0.0,0.0,93,0.00,OVC,,0.02,WeatherDisplay:10.37,2013-07-29 09:18:00,
2013-07-29 05:23:00,58.9,56.9,29.93,SW,214,0.0,0.0,93,0.00,OVC,,0.02,WeatherDisplay:10.37,2013-07-29 09:23:00,
2013-07-29 05:28:00,59.0,57.0,29.94,SW,215,0.0,0.0,93,0.00,OVC,,0.02,WeatherDisplay:10.37,2013-07-29 09:28:00,
2013-07-29 05:33:00,59.0,57.0,29.94,SW,215,0.0,0.0,93,0.00,OVC,,0.02,WeatherDisplay:10.37,2013-07-29 09:33:00,
2013-07-29 05:38:00,59.0,57.0,29.95,SW,215,0.0,0.0,93,0.00,OVC,,0.02,WeatherDisplay:10.37,2013-07-29 09:38:00,
2013-07-29 05:43:00,59.0,57.0,29.95,SW,215,0.0,0.0,93,0.00,OVC,,0.02,WeatherDisplay:10.37,2013-07-29 09:43:00,
2013-07-29 05:48:00,59.0,57.0,29.95,SW,214,0.0,0.0,93,0.00,OVC,,0.02,WeatherDisplay:10.37,2013-07-29 09:48:00,
2013-07-29 05:53:00,59.0,57.0,29.95,SW,215,0.0,0.0,93,0.00,OVC,,0.02,WeatherDisplay:10.37,2013-07-29 09:53:00,
2013-07-29 05:58:00,59.0,57.0,29.95,SW,215,0.0,0.0,93,0.00,OVC,,0.02,WeatherDisplay:10.37,2013-07-29 09:58:00,
2013-07-29 06:03:00,59.0,57.0,29.95,SW,214,0.0,0.0,93,0.00,OVC,,0.02,WeatherDisplay:10.37,2013-07-29 10:03:00,
2013-07-29 06:08:00,59.0,57.0,29.95,SW,215,0.0,0.0,93,0.00,OVC,,0.02,WeatherDisplay:10.37,2013-07-29 10:08:00,
2013-07-29 06:14:00,59.0,57.0,29.95,SW,214,0.0,0.0,93,0.00,OVC,,0.02,WeatherDisplay:10.37,2013-07-29 10:14:00,
2013-07-29 06:19:00,59.0,57.0,29.96,SW,215,0.0,0.0,93,0.00,OVC,,0.02,WeatherDisplay:10.37,2013-07-29 10:19:00,
2013-07-29 06:24:00,59.0,57.0,29.96,SW,214,0.0,0.0,93,0.00,OVC,,0.02,WeatherDisplay:10.37,2013-07-29 10:24:00,
2013-07-29 06:29:00,59.0,57.0,29.96,SW,215,0.0,0.0,93,0.00,OVC,,0.02,WeatherDisplay:10.37,2013-07-29 10:29:00,
2013-07-29 06:35:00,59.0,57.0,29.96,SW,215,0.0,0.0,93,0.00,OVC,,0.02,WeatherDisplay:10.37,2013-07-29 10:35:00,
2013-07-29 06:40:00,59.0,57.0,29.96,SW,214,0.0,0.0,93,0.00,OVC,,0.02,WeatherDisplay:10.37,2013-07-29 10:40:00,
2013-07-29 06:45:00,59.1,57.1,29.96,SW,215,0.0,0.0,93,0.00,OVC,,0.02,WeatherDisplay:10.37,2013-07-29 10:45:00,
2013-07-29 06:50:00,59.1,57.1,29.96,SW,215,0.0,0.0,93,0.00,OVC,,0.02,WeatherDisplay:10.37,2013-07-29 10:50:00,
2013-07-29 06:55:00,59.1,57.1,29.96,SW,215,0.0,0.0,93,0.00,OVC,,0.02,WeatherDisplay:10.37,2013-07-29 10:55:00,
2013-07-29 07:00:00,59.1,57.1,29.96,SW,215,0.0,0.0,93,0.00,OVC,,0.02,WeatherDisplay:10.37,2013-07-29 11:00:00,
2013-07-29 07:06:00,59.2,57.2,29.96,SW,215,1.0,2.3,93,0.00,OVC,,0.02,WeatherDisplay:10.37,2013-07-29 11:06:00,
2013-07-29 07:11:00,59.2,57.2,29.96,SW,215,0.1,2.3,93,0.00,OVC,,0.02,WeatherDisplay:10.37,2013-07-29 11:11:00,
2013-07-29 07:17:00,59.2,57.2,29.96,SW,215,0.0,0.0,93,0.00,BKN,,0.02,WeatherDisplay:10.37,2013-07-29 11:17:00,
2013-07-29 07:22:00,59.3,57.3,29.96,SW,215,0.0,3.0,93,0.00,BKN,,0.02,WeatherDisplay:10.37,2013-07-29 11:22:00,
2013-07-29 07:27:00,59.4,57.4,29.96,SW,215,0.0,0.0,93,0.00,BKN,,0.02,WeatherDisplay:10.37,2013-07-29 11:27:00,
2013-07-29 07:32:00,59.5,57.4,29.97,SW,215,0.0,1.0,93,0.00,BKN,,0.02,WeatherDisplay:10.37,2013-07-29 11:32:00,
2013-07-29 07:37:00,59.6,57.6,29.97,SW,214,0.0,2.3,93,0.00,BKN,,0.02,WeatherDisplay:10.37,2013-07-29 11:37:00,
2013-07-29 07:42:00,59.7,57.7,29.97,SW,215,0.0,0.0,93,0.00,BKN,,0.02,WeatherDisplay:10.37,2013-07-29 11:42:00,
2013-07-29 07:47:00,59.5,57.5,29.97,SW,217,0.0,0.0,93,0.00,BKN,,0.02,WeatherDisplay:10.37,2013-07-29 11:47:00,
2013-07-29 07:52:00,59.5,57.4,29.97,SW,217,0.0,0.0,93,0.00,BKN,,0.02,WeatherDisplay:10.37,2013-07-29 11:52:00,
2013-07-29 07:57:00,59.5,57.5,29.97,SW,215,1.0,5.0,93,0.00,BKN,,0.02,WeatherDisplay:10.37,2013-07-29 11:57:00,
2013-07-29 08:02:00,59.6,57.6,29.97,SSW,203,0.5,0.0,93,0.00,SCT,,0.02,WeatherDisplay:10.37,2013-07-29 12:02:00,
2013-07-29 08:07:00,60.0,58.0,29.98,SSW,203,0.0,0.0,93,0.00,SCT,,0.02,WeatherDisplay:10.37,2013-07-29 12:07:00,
2013-07-29 08:12:00,60.2,58.2,29.98,SW,219,1.3,3.5,93,0.00,SCT,,0.02,WeatherDisplay:10.37,2013-07-29 12:12:00,
2013-07-29 08:17:00,60.5,58.5,29.98,SW,221,2.7,4.6,93,0.00,SCT,,0.02,WeatherDisplay:10.37,2013-07-29 12:17:00,
2013-07-29 08:22:00,61.0,59.0,29.98,SW,218,1.5,3.5,93,0.00,SCT,,0.02,WeatherDisplay:10.37,2013-07-29 12:22:00,
2013-07-29 08:28:00,61.6,59.6,29.98,SW,236,1.7,3.5,93,0.00,SCT,,0.02,WeatherDisplay:10.37,2013-07-29 12:28:00,
2013-07-29 08:33:00,62.0,60.0,29.98,SW,234,0.0,3.0,93,0.00,SCT,,0.02,WeatherDisplay:10.37,2013-07-29 12:33:00,
2013-07-29 08:38:00,62.7,60.4,29.98,WSW,239,0.0,4.0,92,0.00,SCT,,0.02,WeatherDisplay:10.37,2013-07-29 12:38:00,
2013-07-29 08:43:00,62.2,59.2,29.98,SSW,192,2.4,3.5,90,0.00,SCT,,0.02,WeatherDisplay:10.37,2013-07-29 12:43:00,
2013-07-29 08:48:00,62.1,58.5,29.98,SW,216,5.3,6.9,88,0.00,SCT,,0.02,WeatherDisplay:10.37,2013-07-29 12:48:00,
2013-07-29 08:54:00,62.2,58.6,29.98,SW,223,0.2,3.5,88,0.00,SCT,,0.02,WeatherDisplay:10.37,2013-07-29 12:54:00,
2013-07-29 08:59:00,62.8,59.2,29.98,SW,221,1.6,3.0,88,0.00,SCT,,0.02,WeatherDisplay:10.37,2013-07-29 12:59:00,
2013-07-29 09:04:00,62.9,58.3,29.98,SSW,203,0.0,0.0,85,0.00,BKN,,0.02,WeatherDisplay:10.37,2013-07-29 13:04:00,
2013-07-29 09:10:00,63.0,58.4,29.98,SW,225,3.0,4.6,85,0.00,BKN,,0.02,WeatherDisplay:10.37,2013-07-29 13:10:00,
2013-07-29 09:15:00,63.5,58.9,29.98,WSW,239,2.4,2.4,85,0.00,BKN,,0.02,WeatherDisplay:10.37,2013-07-29 13:15:00,
2013-07-29 09:20:00,63.8,58.9,29.98,West,259,3.7,4.0,84,0.00,BKN,,0.02,WeatherDisplay:10.37,2013-07-29 13:20:00,
2013-07-29 09:25:00,63.9,58.0,29.98,SW,235,5.7,9.2,81,0.00,BKN,,0.02,WeatherDisplay:10.37,2013-07-29 13:25:00,
2013-07-29 09:30:00,64.3,59.0,29.98,West,268,5.4,6.9,83,0.00,BKN,,0.02,WeatherDisplay:10.37,2013-07-29 13:30:00,
2013-07-29 09:35:00,64.5,58.9,29.98,SSW,210,1.5,6.9,82,0.00,BKN,,0.02,WeatherDisplay:10.37,2013-07-29 13:35:00,
2013-07-29 09:41:00,64.5,57.8,29.98,WSW,237,3.0,6.0,79,0.00,BKN,,0.02,WeatherDisplay:10.37,2013-07-29 13:41:00,
2013-07-29 09:46:00,64.4,57.0,29.98,SW,219,5.0,6.0,77,0.00,BKN,,0.02,WeatherDisplay:10.37,2013-07-29 13:46:00,
2013-07-29 09:51:00,64.4,56.7,29.98,SSW,207,1.0,5.0,76,0.00,BKN,,0.02,WeatherDisplay:10.37,2013-07-29 13:51:00,
2013-07-29 09:56:00,64.8,57.5,29.98,South,190,5.0,5.0,77,0.00,BKN,,0.02,WeatherDisplay:10.37,2013-07-29 13:56:00,
2013-07-29 10:01:00,65.3,56.8,29.98,SW,234,6.0,8.1,74,0.00,BKN,,0.02,WeatherDisplay:10.37,2013-07-29 14:01:00,
2013-07-29 10:07:00,65.1,56.2,29.98,SW,228,4.2,7.0,73,0.00,BKN,,0.02,WeatherDisplay:10.37,2013-07-29 14:07:00,
2013-07-29 10:12:00,65.3,56.8,29.99,SSW,192,1.4,6.9,74,0.00,BKN,,0.02,WeatherDisplay:10.37,2013-07-29 14:12:00,
2013-07-29 10:17:00,65.7,57.2,29.99,SW,220,5.4,6.9,74,0.00,BKN,,0.02,WeatherDisplay:10.37,2013-07-29 14:17:00,
2013-07-29 10:22:00,66.0,57.5,29.99,SW,216,3.9,5.8,74,0.00,BKN,,0.02,WeatherDisplay:10.37,2013-07-29 14:22:00,
2013-07-29 10:27:00,66.2,56.5,29.99,SW,214,3.9,5.8,71,0.00,BKN,,0.02,WeatherDisplay:10.37,2013-07-29 14:27:00,
2013-07-29 10:32:00,66.2,56.1,29.99,SW,234,5.4,10.4,70,0.00,BKN,,0.02,WeatherDisplay:10.37,2013-07-29 14:32:00,
2013-07-29 10:38:00,66.4,56.7,29.99,WSW,252,10.1,11.5,71,0.00,BKN,,0.02,WeatherDisplay:10.37,2013-07-29 14:38:00,
2013-07-29 10:43:00,66.5,56.8,29.99,SW,217,5.0,8.0,71,0.00,BKN,,0.02,WeatherDisplay:10.37,2013-07-29 14:43:00,
2013-07-29 10:48:00,66.8,57.5,29.99,SW,225,4.5,9.2,72,0.00,BKN,,0.02,WeatherDisplay:10.37,2013-07-29 14:48:00,
2013-07-29 10:53:00,67.2,57.5,29.99,SW,217,6.0,9.0,71,0.00,BKN,,0.02,WeatherDisplay:10.37,2013-07-29 14:53:00,
2013-07-29 10:58:00,67.1,55.8,30.00,SW,222,9.0,13.0,67,0.00,BKN,,0.02,WeatherDisplay:10.37,2013-07-29 14:58:00,
2013-07-29 11:03:00,66.8,56.3,29.99,WSW,248,6.6,11.5,69,0.00,BKN,,0.02,WeatherDisplay:10.37,2013-07-29 15:03:00,
2013-07-29 11:08:00,66.8,55.5,29.99,WSW,244,9.1,12.7,67,0.00,BKN,,0.02,WeatherDisplay:10.37,2013-07-29 15:08:00,
2013-07-29 11:13:00,66.7,57.0,30.00,SW,218,3.8,6.9,71,0.00,BKN,,0.02,WeatherDisplay:10.37,2013-07-29 15:13:00,
2013-07-29 11:19:00,66.7,56.6,30.00,SW,223,5.0,7.0,70,0.00,BKN,,0.02,WeatherDisplay:10.37,2013-07-29 15:19:00,
2013-07-29 11:24:00,66.8,55.9,30.00,SW,234,8.0,12.0,68,0.00,BKN,,0.02,WeatherDisplay:10.37,2013-07-29 15:24:00,
2013-07-29 11:29:00,66.7,55.8,30.00,SW,231,7.0,12.0,68,0.00,BKN,,0.02,WeatherDisplay:10.37,2013-07-29 15:29:00,
2013-07-29 11:34:00,66.5,55.6,30.00,SW,231,6.0,8.0,68,0.00,BKN,,0.02,WeatherDisplay:10.37,2013-07-29 15:34:00,
2013-07-29 11:39:00,66.4,56.7,30.00,SSW,206,0.6,5.8,71,0.00,BKN,,0.02,WeatherDisplay:10.37,2013-07-29 15:39:00,
2013-07-29 11:45:00,66.7,57.0,30.00,West,260,4.5,11.5,71,0.00,BKN,,0.02,WeatherDisplay:10.37,2013-07-29 15:45:00,
2013-07-29 11:50:00,66.8,56.3,30.00,West,269,4.2,6.9,69,0.00,BKN,,0.02,WeatherDisplay:10.37,2013-07-29 15:50:00,
2013-07-29 11:55:00,66.8,57.1,30.00,SSW,198,5.7,10.4,71,0.00,BKN,,0.02,WeatherDisplay:10.37,2013-07-29 15:55:00,
2013-07-29 12:00:00,66.7,56.6,30.00,SW,221,5.6,10.4,70,0.00,BKN,,0.02,WeatherDisplay:10.37,2013-07-29 16:00:00,
2013-07-29 12:07:00,66.9,56.8,30.00,SSW,198,5.2,5.2,70,0.00,BKN,,0.02,WeatherDisplay:10.37,2013-07-29 16:07:00,
2013-07-29 12:12:00,67.0,56.9,30.00,SW,215,4.9,6.9,70,0.00,BKN,,0.02,WeatherDisplay:10.37,2013-07-29 16:12:00,
2013-07-29 12:17:00,66.9,56.8,30.00,SW,215,5.0,7.0,70,0.00,BKN,,0.02,WeatherDisplay:10.37,2013-07-29 16:17:00,
2013-07-29 12:22:00,66.8,56.3,30.00,SSW,209,2.0,4.0,69,0.00,BKN,,0.02,WeatherDisplay:10.37,2013-07-29 16:22:00,
2013-07-29 12:27:00,66.8,56.7,30.00,SW,219,7.6,11.5,70,0.00,BKN,,0.02,WeatherDisplay:10.37,2013-07-29 16:27:00,
2013-07-29 12:32:00,66.6,56.9,30.00,SW,217,5.0,12.0,71,0.00,BKN,,0.02,WeatherDisplay:10.37,2013-07-29 16:32:00,
2013-07-29 12:37:00,66.5,56.8,30.00,SW,232,6.5,8.1,71,0.00,BKN,,0.02,WeatherDisplay:10.37,2013-07-29 16:37:00,
2013-07-29 12:42:00,66.6,56.5,30.01,SW,236,4.2,11.5,70,0.00,BKN,,0.02,WeatherDisplay:10.37,2013-07-29 16:42:00,
2013-07-29 12:48:00,66.6,56.9,30.01,SW,227,5.0,8.0,71,0.00,BKN,,0.02,WeatherDisplay:10.37,2013-07-29 16:48:00,
2013-07-29 12:53:00,66.8,57.1,30.01,SSW,209,8.0,11.5,71,0.00,-RA,,0.02,WeatherDisplay:10.37,2013-07-29 16:53:00,
2013-07-29 12:58:00,66.8,56.7,30.01,WSW,244,9.0,13.0,70,0.00,-RA,,0.02,WeatherDisplay:10.37,2013-07-29 16:58:00,
2013-07-29 13:03:00,66.8,57.1,30.01,WSW,239,6.8,9.2,71,0.00,-RA,,0.02,WeatherDisplay:10.37,2013-07-29 17:03:00,
2013-07-29 13:09:00,67.0,56.9,30.01,West,268,6.6,12.7,70,0.00,-RA,,0.02,WeatherDisplay:10.37,2013-07-29 17:09:00,
2013-07-29 13:14:00,67.1,56.6,30.00,WSW,237,5.0,13.0,69,0.00,OVC,,0.02,WeatherDisplay:10.37,2013-07-29 17:14:00,
2013-07-29 13:19:00,67.1,56.6,30.01,WSW,242,6.0,10.0,69,0.00,OVC,,0.02,WeatherDisplay:10.37,2013-07-29 17:19:00,
2013-07-29 13:24:00,67.1,57.0,30.01,SW,226,7.0,12.0,70,0.00,OVC,,0.02,WeatherDisplay:10.37,2013-07-29 17:24:00,
2013-07-29 13:29:00,67.1,56.6,30.01,SW,223,5.0,9.0,69,0.00,OVC,,0.02,WeatherDisplay:10.37,2013-07-29 17:29:00,
2013-07-29 13:34:00,66.8,56.3,30.01,SW,233,8.0,12.0,69,0.00,OVC,,0.02,WeatherDisplay:10.37,2013-07-29 17:34:00,
2013-07-29 13:39:00,66.8,57.1,30.01,SW,228,5.0,10.0,71,0.00,OVC,,0.02,WeatherDisplay:10.37,2013-07-29 17:39:00,
2013-07-29 13:44:00,66.9,57.6,30.01,SW,223,6.1,10.4,72,0.00,OVC,,0.02,WeatherDisplay:10.37,2013-07-29 17:44:00,
2013-07-29 13:50:00,67.1,57.8,30.01,SW,230,3.0,8.1,72,0.00,OVC,,0.02,WeatherDisplay:10.37,2013-07-29 17:50:00,
2013-07-29 13:55:00,67.2,57.5,30.01,SW,224,4.2,8.1,71,0.00,OVC,,0.02,WeatherDisplay:10.37,2013-07-29 17:55:00,
2013-07-29 14:00:00,67.3,57.6,30.01,SW,235,2.3,5.8,71,0.00,OVC,,0.02,WeatherDisplay:10.37,2013-07-29 18:00:00,
2013-07-29 14:05:00,67.2,56.7,30.01,SSW,198,7.6,10.4,69,0.00,OVC,,0.02,WeatherDisplay:10.37,2013-07-29 18:05:00,
2013-07-29 14:10:00,67.2,57.1,30.01,SW,232,4.9,8.1,70,0.00,OVC,,0.02,WeatherDisplay:10.37,2013-07-29 18:10:00,
2013-07-29 14:15:00,66.6,58.4,30.01,SSW,205,10.2,15.0,75,0.00,OVC,,0.02,WeatherDisplay:10.37,2013-07-29 18:15:00,
2013-07-29 14:20:00,65.4,59.4,30.02,SW,215,5.4,9.2,81,0.00,OVC,,0.03,WeatherDisplay:10.37,2013-07-29 18:20:00,
2013-07-29 14:25:00,64.7,59.8,30.02,SW,227,2.7,4.6,84,0.01,-RA,,0.03,WeatherDisplay:10.37,2013-07-29 18:25:00,
2013-07-29 14:30:00,64.3,60.0,30.01,SSW,192,3.4,8.1,86,0.02,-RA,,0.04,WeatherDisplay:10.37,2013-07-29 18:30:00,
2013-07-29 14:35:00,64.1,60.2,30.02,South,189,1.5,5.8,87,0.02,RA,,0.04,WeatherDisplay:10.37,2013-07-29 18:35:00,
2013-07-29 14:41:00,63.9,60.3,30.02,SSW,198,3.7,6.9,88,0.02,BKN,,0.04,WeatherDisplay:10.37,2013-07-29 18:41:00,
2013-07-29 14:46:00,63.8,60.2,30.02,SW,216,1.2,3.5,88,0.02,BKN,,0.04,WeatherDisplay:10.37,2013-07-29 18:46:00,
2013-07-29 14:52:00,63.9,60.3,30.02,SSW,207,3.0,7.0,88,0.00,BKN,,0.04,WeatherDisplay:10.37,2013-07-29 18:52:00,
2013-07-29 14:57:00,64.0,60.3,30.02,South,191,6.0,12.0,88,0.00,-RA,,0.04,WeatherDisplay:10.37,2013-07-29 18:57:00,
2013-07-29 15:02:00,64.2,60.6,30.02,SW,218,1.8,4.6,88,0.02,-RA,,0.04,WeatherDisplay:10.37,2013-07-29 19:02:00,
2013-07-29 15:07:00,64.7,61.1,30.02,SW,218,2.0,4.6,88,0.02,-RA,,0.04,WeatherDisplay:10.37,2013-07-29 19:07:00,
2013-07-29 15:12:00,65.2,61.6,30.01,SSW,205,2.0,5.8,88,0.02,-RA,,0.04,WeatherDisplay:10.37,2013-07-29 19:12:00,
2013-07-29 15:17:00,65.5,61.5,30.01,South,178,4.7,8.1,87,0.02,-RA,,0.04,WeatherDisplay:10.37,2013-07-29 19:17:00,
2013-07-29 15:22:00,66.0,61.4,30.01,SW,228,8.6,12.7,85,0.02,BKN,,0.04,WeatherDisplay:10.37,2013-07-29 19:22:00,
2013-07-29 15:27:00,66.6,61.6,30.01,SSW,213,5.2,9.2,84,0.00,BKN,,0.04,WeatherDisplay:10.37,2013-07-29 19:27:00,
2013-07-29 15:33:00,66.9,61.2,30.01,SW,232,5.6,10.4,82,0.00,BKN,,0.04,WeatherDisplay:10.37,2013-07-29 19:33:00,
2013-07-29 15:38:00,67.3,61.3,30.01,SSW,211,3.8,10.4,81,0.00,BKN,,0.04,WeatherDisplay:10.37,2013-07-29 19:38:00,
2013-07-29 15:44:00,67.4,60.7,30.01,SSW,201,6.0,9.0,79,0.00,BKN,,0.04,WeatherDisplay:10.37,2013-07-29 19:44:00,
2013-07-29 15:49:00,67.6,61.2,30.01,SSW,209,3.0,10.0,80,0.00,BKN,,0.04,WeatherDisplay:10.37,2013-07-29 19:49:00,
2013-07-29 15:54:00,68.3,61.1,30.01,SSW,205,6.0,10.0,78,0.00,BKN,,0.04,WeatherDisplay:10.37,2013-07-29 19:54:00,
2013-07-29 15:59:00,68.6,60.7,30.00,SW,217,6.0,7.0,76,0.00,BKN,,0.04,WeatherDisplay:10.37,2013-07-29 19:59:00,
2013-07-29 16:04:00,68.7,60.8,30.01,WSW,245,7.3,11.5,76,0.00,BKN,,0.04,WeatherDisplay:10.37,2013-07-29 20:04:00,
2013-07-29 16:09:00,68.2,60.3,30.01,SSW,199,6.8,9.2,76,0.00,BKN,,0.04,WeatherDisplay:10.37,2013-07-29 20:09:00,
2013-07-29 16:14:00,67.9,60.4,30.01,WSW,237,5.9,9.2,77,0.00,BKN,,0.04,WeatherDisplay:10.37,2013-07-29 20:14:00,
2013-07-29 16:19:00,67.8,60.3,30.01,WSW,244,10.0,15.0,77,0.00,BKN,,0.04,WeatherDisplay:10.37,2013-07-29 20:19:00,
2013-07-29 16:25:00,67.9,59.7,30.01,SW,231,6.6,11.5,75,0.00,BKN,,0.04,WeatherDisplay:10.37,2013-07-29 20:25:00,
2013-07-29 16:30:00,68.4,60.5,30.01,WSW,240,3.8,9.2,76,0.00,BKN,,0.04,WeatherDisplay:10.37,2013-07-29 20:30:00,
2013-07-29 16:35:00,68.1,59.5,30.01,SSW,210,4.3,8.1,74,0.00,BKN,,0.04,WeatherDisplay:10.37,2013-07-29 20:35:00,
2013-07-29 16:40:00,67.7,59.5,30.01,SW,223,1.2,6.9,75,0.00,BKN,,0.04,WeatherDisplay:10.37,2013-07-29 20:40:00,
2013-07-29 16:45:00,67.4,59.6,30.01,SW,227,5.3,9.2,76,0.00,BKN,,0.04,WeatherDisplay:10.37,2013-07-29 20:45:00,
2013-07-29 16:50:00,67.3,59.8,30.01,SW,218,5.1,6.9,77,0.00,BKN,,0.04,WeatherDisplay:10.37,2013-07-29 20:50:00,
2013-07-29 16:55:00,67.7,61.0,30.01,West,269,0.3,5.8,79,0.00,BKN,,0.04,WeatherDisplay:10.37,2013-07-29 20:55:00,
2013-07-29 17:01:00,68.0,60.9,30.01,WSW,241,0.0,12.0,78,0.00,BKN,,0.04,WeatherDisplay:10.37,2013-07-29 21:01:00,
2013-07-29 17:06:00,68.6,59.6,30.01,SSW,203,7.0,11.5,73,0.00,BKN,,0.04,WeatherDisplay:10.37,2013-07-29 21:06:00,
2013-07-29 17:11:00,69.1,59.3,30.01,SSW,204,7.0,13.0,71,0.00,BKN,,0.04,WeatherDisplay:10.37,2013-07-29 21:11:00,
2013-07-29 17:16:00,69.2,59.0,30.01,WSW,238,7.3,8.1,70,0.00,BKN,,0.04,WeatherDisplay:10.37,2013-07-29 21:16:00,
2013-07-29 17:21:00,68.8,58.6,30.01,SW,218,6.0,10.0,70,0.00,BKN,,0.04,WeatherDisplay:10.37,2013-07-29 21:21:00,
2013-07-29 17:26:00,68.3,58.2,30.01,SW,221,3.0,6.0,70,0.00,BKN,,0.04,WeatherDisplay:10.37,2013-07-29 21:26:00,
2013-07-29 17:31:00,68.8,59.0,30.01,SSE,165,4.8,9.2,71,0.00,BKN,,0.04,WeatherDisplay:10.37,2013-07-29 21:31:00,
2013-07-29 17:36:00,69.5,58.9,30.01,WSW,249,7.9,8.0,69,0.00,BKN,,0.04,WeatherDisplay:10.37,2013-07-29 21:36:00,
2013-07-29 17:42:00,68.9,58.3,30.01,SW,214,3.7,12.7,69,0.00,BKN,,0.04,WeatherDisplay:10.37,2013-07-29 21:42:00,
2013-07-29 17:47:00,68.7,59.7,30.01,SW,217,5.8,6.9,73,0.00,BKN,,0.04,WeatherDisplay:10.37,2013-07-29 21:47:00,
2013-07-29 17:52:00,68.6,58.4,30.01,SW,222,9.6,11.5,70,0.00,BKN,,0.04,WeatherDisplay:10.37,2013-07-29 21:52:00,
2013-07-29 17:57:00,68.5,59.1,30.01,WSW,249,4.9,11.5,72,0.00,BKN,,0.04,WeatherDisplay:10.37,2013-07-29 21:57:00,
2013-07-29 18:02:00,68.2,58.8,30.01,SSW,211,3.5,10.4,72,0.00,BKN,,0.04,WeatherDisplay:10.37,2013-07-29 22:02:00,
2013-07-29 18:08:00,67.8,58.8,30.02,SSW,205,5.2,10.4,73,0.00,BKN,,0.04,WeatherDisplay:10.37,2013-07-29 22:08:00,
2013-07-29 18:13:00,67.4,58.5,30.02,SSW,212,6.0,7.0,73,0.00,-RA,,0.04,WeatherDisplay:10.37,2013-07-29 22:13:00,
2013-07-29 18:18:00,67.2,58.6,30.02,SSW,206,3.0,12.0,74,0.00,-RA,,0.04,WeatherDisplay:10.37,2013-07-29 22:18:00,
2013-07-29 18:23:00,67.0,58.8,30.02,SSW,194,4.4,10.4,75,0.00,-RA,,0.04,WeatherDisplay:10.37,2013-07-29 22:23:00,
2013-07-29 18:28:00,66.7,58.9,30.02,SW,233,7.3,13.8,76,0.00,-RA,,0.04,WeatherDisplay:10.37,2013-07-29 22:28:00,
2013-07-29 18:33:00,66.4,59.0,30.02,SW,222,5.0,9.2,77,0.00,-RA,,0.04,WeatherDisplay:10.37,2013-07-29 22:33:00,
2013-07-29 18:38:00,66.1,59.0,30.03,SW,215,1.2,5.8,78,0.00,-RA,,0.04,WeatherDisplay:10.37,2013-07-29 22:38:00,
2013-07-29 18:44:00,66.0,59.3,30.03,SW,223,3.0,5.0,79,0.00,BKN,,0.04,WeatherDisplay:10.37,2013-07-29 22:44:00,
2013-07-29 18:49:00,66.1,59.0,30.03,SW,220,6.0,9.0,78,0.00,BKN,,0.04,WeatherDisplay:10.37,2013-07-29 22:49:00,
2013-07-29 18:54:00,66.2,58.7,30.03,SW,224,7.0,12.0,77,0.00,BKN,,0.04,WeatherDisplay:10.37,2013-07-29 22:54:00,
2013-07-29 18:59:00,66.7,59.3,30.03,SSW,211,8.1,10.4,77,0.00,BKN,,0.04,WeatherDisplay:10.37,2013-07-29 22:59:00,
2013-07-29 19:04:00,67.3,59.5,30.03,South,187,4.6,8.1,76,0.00,BKN,,0.04,WeatherDisplay:10.37,2013-07-29 23:04:00,
2013-07-29 19:09:00,68.0,59.8,30.03,SW,233,5.7,11.5,75,0.00,BKN,,0.04,WeatherDisplay:10.37,2013-07-29 23:09:00,
2013-07-29 19:14:00,68.2,59.6,30.03,WSW,254,6.2,15.0,74,0.00,BKN,,0.04,WeatherDisplay:10.37,2013-07-29 23:14:00,
2013-07-29 19:19:00,68.3,59.7,30.03,SSW,205,5.8,12.7,74,0.00,BKN,,0.04,WeatherDisplay:10.37,2013-07-29 23:19:00,
2013-07-29 19:24:00,68.1,59.5,30.03,SSW,200,6.0,10.4,74,0.00,BKN,,0.04,WeatherDisplay:10.37,2013-07-29 23:24:00,
2013-07-29 19:30:00,67.5,59.3,30.03,SW,217,4.6,11.5,75,0.00,BKN,,0.04,WeatherDisplay:10.37,2013-07-29 23:30:00,
2013-07-29 19:35:00,67.2,59.4,30.03,West,271,5.3,6.9,76,0.00,BKN,,0.04,WeatherDisplay:10.37,2013-07-29 23:35:00,
2013-07-29 19:40:00,66.7,59.3,30.03,WSW,244,5.4,9.2,77,0.00,BKN,,0.04,WeatherDisplay:10.37,2013-07-29 23:40:00,
2013-07-29 19:45:00,66.5,59.4,30.04,SW,222,4.9,6.9,78,0.00,BKN,,0.04,WeatherDisplay:10.37,2013-07-29 23:45:00,
2013-07-29 19:50:00,66.3,59.2,30.04,SW,221,5.9,9.2,78,0.00,BKN,,0.04,WeatherDisplay:10.37,2013-07-29 23:50:00,
2013-07-29 19:55:00,66.2,59.1,30.04,WSW,241,4.2,8.1,78,0.00,BKN,,0.04,WeatherDisplay:10.37,2013-07-29 23:55:00,
2013-07-29 20:01:00,66.2,58.8,30.04,SW,230,5.0,8.0,77,0.00,BKN,,0.04,WeatherDisplay:10.37,2013-07-30 00:01:00,
2013-07-29 20:06:00,66.2,58.8,30.04,South,191,8.0,11.5,77,0.00,BKN,,0.04,WeatherDisplay:10.37,2013-07-30 00:06:00,
2013-07-29 20:11:00,66.2,58.8,30.04,SW,234,3.8,6.9,77,0.00,BKN,,0.04,WeatherDisplay:10.37,2013-07-30 00:11:00,
2013-07-29 20:16:00,66.0,58.9,30.04,SW,225,4.9,10.4,78,0.00,BKN,,0.04,WeatherDisplay:10.37,2013-07-30 00:16:00,
2013-07-29 20:21:00,66.0,58.9,30.04,WSW,238,5.0,6.9,78,0.00,BKN,,0.04,WeatherDisplay:10.37,2013-07-30 00:21:00,
2013-07-29 20:26:00,65.9,58.8,30.04,WSW,248,2.8,3.5,78,0.00,BKN,,0.04,WeatherDisplay:10.37,2013-07-30 00:26:00,
2013-07-29 20:33:00,65.7,59.0,30.05,SW,230,4.9,5.8,79,0.00,BKN,,0.04,WeatherDisplay:10.37,2013-07-30 00:33:00,
2013-07-29 20:38:00,65.6,58.9,30.05,SW,221,2.7,5.8,79,0.00,BKN,,0.04,WeatherDisplay:10.37,2013-07-30 00:38:00,
2013-07-29 20:43:00,65.4,58.7,30.05,SW,219,4.9,6.9,79,0.00,BKN,,0.04,WeatherDisplay:10.37,2013-07-30 00:43:00,
2013-07-29 20:48:00,65.3,59.0,30.05,SSW,212,0.9,4.6,80,0.00,BKN,,0.04,WeatherDisplay:10.37,2013-07-30 00:48:00,
2013-07-29 20:53:00,65.2,58.9,30.05,SSW,207,1.2,4.6,80,0.00,BKN,,0.04,WeatherDisplay:10.37,2013-07-30 00:53:00,
2013-07-29 20:59:00,65.1,58.7,30.05,SSW,211,2.0,4.0,80,0.00,BKN,,0.04,WeatherDisplay:10.37,2013-07-30 00:59:00,
2013-07-29 21:04:00,64.9,58.6,30.06,WSW,237,2.8,5.8,80,0.00,SCT,,0.04,WeatherDisplay:10.37,2013-07-30 01:04:00,
2013-07-29 21:09:00,64.8,58.5,30.06,SW,215,0.6,3.5,80,0.00,SCT,,0.04,WeatherDisplay:10.37,2013-07-30 01:09:00,
2013-07-29 21:14:00,64.5,58.5,30.06,SW,221,0.8,1.2,81,0.00,SCT,,0.04,WeatherDisplay:10.37,2013-07-30 01:14:00,
2013-07-29 21:19:00,64.3,58.3,30.07,SW,221,0.0,0.0,81,0.00,SCT,,0.04,WeatherDisplay:10.37,2013-07-30 01:19:00,
2013-07-29 21:25:00,63.9,58.3,30.07,SW,221,0.0,0.0,82,0.00,SCT,,0.04,WeatherDisplay:10.37,2013-07-30 01:25:00,
2013-07-29 21:30:00,63.5,57.9,30.07,SW,221,0.0,1.2,82,0.00,SCT,,0.04,WeatherDisplay:10.37,2013-07-30 01:30:00,
2013-07-29 21:35:00,63.1,57.9,30.07,SW,220,0.4,1.2,83,0.00,SCT,,0.04,WeatherDisplay:10.37,2013-07-30 01:35:00,
2013-07-29 21:41:00,62.8,57.9,30.08,SW,220,0.2,3.5,84,0.00,SCT,,0.04,WeatherDisplay:10.37,2013-07-30 01:41:00,
2013-07-29 21:46:00,62.6,58.0,30.08,SW,219,0.0,2.0,85,0.00,SCT,,0.04,WeatherDisplay:10.37,2013-07-30 01:46:00,
2013-07-29 21:51:00,62.3,57.7,30.08,SW,221,0.6,1.2,85,0.00,SCT,,0.04,WeatherDisplay:10.37,2013-07-30 01:51:00,
2013-07-29 21:56:00,62.3,58.1,30.08,SW,221,0.3,1.2,86,0.00,SCT,,0.04,WeatherDisplay:10.37,2013-07-30 01:56:00,
2013-07-29 22:01:00,62.3,58.1,30.08,SW,221,0.7,0.0,86,0.00,FEW,,0.04,WeatherDisplay:10.37,2013-07-30 02:01:00,
2013-07-29 22:07:00,62.2,58.0,30.09,SW,221,1.6,3.5,86,0.00,FEW,,0.04,WeatherDisplay:10.37,2013-07-30 02:07:00,
2013-07-29 22:12:00,62.2,58.0,30.09,SW,221,0.0,0.0,86,0.00,FEW,,0.04,WeatherDisplay:10.37,2013-07-30 02:12:00,
2013-07-29 22:17:00,62.1,57.9,30.09,SW,221,0.0,2.0,86,0.00,FEW,,0.04,WeatherDisplay:10.37,2013-07-30 02:17:00,
2013-07-29 22:22:00,61.9,57.7,30.09,SW,221,0.0,2.0,86,0.00,FEW,,0.04,WeatherDisplay:10.37,2013-07-30 02:22:00,
2013-07-29 22:27:00,61.7,57.5,30.09,SW,221,0.0,0.0,86,0.00,FEW,,0.04,WeatherDisplay:10.37,2013-07-30 02:27:00,
2013-07-29 22:32:00,61.5,57.6,30.09,SW,221,0.0,0.0,87,0.00,FEW,,0.04,WeatherDisplay:10.37,2013-07-30 02:32:00,
2013-07-29 22:37:00,61.2,57.3,30.09,SW,221,0.0,0.0,87,0.00,FEW,,0.04,WeatherDisplay:10.37,2013-07-30 02:37:00,
2013-07-29 22:42:00,60.8,56.9,30.10,SW,221,0.0,0.0,87,0.00,FEW,,0.04,WeatherDisplay:10.37,2013-07-30 02:42:00,
2013-07-29 22:47:00,60.5,56.9,30.10,SW,221,0.0,0.0,88,0.00,FEW,,0.04,WeatherDisplay:10.37,2013-07-30 02:47:00,
2013-07-29 22:52:00,60.3,56.7,30.10,SW,221,0.0,0.0,88,0.00,FEW,,0.04,WeatherDisplay:10.37,2013-07-30 02:52:00,
2013-07-29 22:57:00,60.0,56.4,30.10,SW,221,0.0,0.0,88,0.00,FEW,,0.04,WeatherDisplay:10.37,2013-07-30 02:57:00,
2013-07-29 23:02:00,59.8,56.6,30.10,SW,221,0.0,0.0,89,0.00,FEW,,0.04,WeatherDisplay:10.37,2013-07-30 03:02:00,
2013-07-29 23:08:00,59.5,56.3,30.10,SW,221,0.0,0.0,89,0.00,FEW,,0.04,WeatherDisplay:10.37,2013-07-30 03:08:00,
2013-07-29 23:13:00,59.3,56.1,30.10,SW,221,0.0,1.2,89,0.00,FEW,,0.04,WeatherDisplay:10.37,2013-07-30 03:13:00,
2013-07-29 23:18:00,59.1,56.2,30.10,SW,221,0.0,0.0,90,0.00,FEW,,0.04,WeatherDisplay:10.37,2013-07-30 03:18:00,
2013-07-29 23:24:00,59.0,56.1,30.10,SW,221,0.0,2.0,90,0.00,FEW,,0.04,WeatherDisplay:10.37,2013-07-30 03:24:00,
2013-07-29 23:29:00,59.0,56.1,30.10,SW,221,0.0,0.0,90,0.00,FEW,,0.04,WeatherDisplay:10.37,2013-07-30 03:29:00,
2013-07-29 23:34:00,59.0,56.4,30.10,SW,221,0.0,4.0,91,0.00,FEW,,0.04,WeatherDisplay:10.37,2013-07-30 03:34:00,
2013-07-29 23:39:00,59.0,56.4,30.10,SW,221,0.0,0.0,91,0.00,FEW,,0.04,WeatherDisplay:10.37,2013-07-30 03:39:00,
2013-07-29 23:44:00,59.0,56.4,30.10,SW,221,0.0,4.0,91,0.00,FEW,,0.04,WeatherDisplay:10.37,2013-07-30 03:44:00,
2013-07-29 23:49:00,59.1,56.8,30.10,SW,221,0.0,3.5,92,0.00,FEW,,0.04,WeatherDisplay:10.37,2013-07-30 03:49:00,
2013-07-29 23:54:00,59.0,56.7,30.10,SW,221,0.0,1.0,92,0.00,FEW,,0.04,WeatherDisplay:10.37,2013-07-30 03:54:00,
2013-07-29 23:59:00,59.1,56.5,30.10,SW,221,1.0,3.5,91,0.00,FEW,,0.04,WeatherDisplay:10.37,2013-07-30 03:59:00,